Time;durP1;ratioP1;P1;durP2;ratioP2;P2;SDS_P1;SDS_P2;PMS_P1;PMS_P2;Temp;Humidity;BMP_temperature;BMP_pressure;BME280_temperature;BME280_humidity;BME280_pressure;Samples;Min_cycle;Max_cycle;Signal;HPM_P1;HPM_P2
2022/02/28 07:32:24;;;;;;;6.15;3.70;;;;;;;1.01;59.14;100988.28;1774567;79;21008;-37
2022/02/28 07:34:51;;;;;;;5.53;3.30;;;;;;;1.06;58.94;100987.52;1758956;80;21673;-37
2022/02/28 07:37:18;;;;;;;6.40;3.08;;;;;;;1.14;58.16;100993.17;1767411;79;21739;-38
2022/02/28 07:39:44;;;;;;;6.53;3.72;;;;;;;1.23;57.08;100999.64;1786224;78;20985;-38
2022/02/28 07:42:12;;;;;;;4.95;2.92;;;;;;;1.26;56.16;100991.62;1748727;80;22117;-37
2022/02/28 07:44:39;;;;;;;6.08;2.90;;;;;;;1.38;57.12;101002.13;1751819;80;20917;-37
2022/02/28 07:47:07;;;;;;;5.03;3.00;;;;;;;1.53;56.78;101002.22;1763955;80;21564;-38
2022/02/28 07:49:35;;;;;;;4.90;2.95;;;;;;;1.69;55.22;101007.36;1772190;79;21142;-38
2022/02/28 07:52:03;;;;;;;5.42;2.75;;;;;;;1.82;54.32;100990.06;1762362;79;21389;-37
2022/02/28 07:54:30;;;;;;;7.05;3.05;;;;;;;1.95;53.03;100982.87;1748225;80;22268;-37
2022/02/28 07:56:57;;;;;;;5.65;3.12;;;;;;;2.03;52.36;100993.06;1773524;80;20976;-37
2022/02/28 07:59:24;;;;;;;6.90;3.40;;;;;;;2.12;51.72;101002.21;1754784;80;21056;-37
2022/02/28 08:01:51;;;;;;;3.85;2.60;;;;;;;2.22;50.96;100996.61;1777244;78;21795;-37
2022/02/28 08:04:17;;;;;;;5.12;2.92;;;;;;;2.29;51.03;100995.28;1757575;79;20969;-37
2022/02/28 08:06:46;;;;;;;3.95;2.67;;;;;;;2.43;49.86;100995.56;1755890;79;20929;-38
2022/02/28 08:09:13;;;;;;;4.55;2.70;;;;;;;2.54;49.17;100991.84;1758222;79;21868;-38
2022/02/28 08:11:41;;;;;;;6.28;2.67;;;;;;;2.64;49.00;100986.50;1743289;80;21101;-37
2022/02/28 08:14:08;;;;;;;4.90;2.67;;;;;;;2.64;47.48;100986.50;1750789;80;21106;-37
2022/02/28 08:16:35;;;;;;;4.12;2.62;;;;;;;2.73;48.11;100992.13;1756920;80;21622;-37
2022/02/28 08:19:03;;;;;;;4.15;2.37;;;;;;;2.84;48.16;100990.53;1751386;80;21539;-37
2022/02/28 08:21:31;;;;;;;4.42;2.40;;;;;;;2.98;46.66;100968.81;1746769;80;21040;-37
2022/02/28 08:23:58;;;;;;;5.80;2.80;;;;;;;3.11;46.43;100986.73;1764716;80;20993;-38
2022/02/28 08:26:25;;;;;;;5.45;2.75;;;;;;;3.20;46.02;100979.75;1753351;80;21116;-37
2022/02/28 08:28:51;;;;;;;5.20;2.90;;;;;;;3.29;46.22;100983.52;1755228;80;21067;-37
2022/02/28 08:31:18;;;;;;;6.92;2.80;;;;;;;3.44;46.41;100980.77;1751090;80;20969;-38
2022/02/28 08:33:44;;;;;;;4.70;2.70;;;;;;;3.58;45.12;100967.09;1752314;80;21053;-37
2022/02/28 08:36:11;;;;;;;5.78;2.90;;;;;;;3.73;45.84;100973.70;1752350;80;21415;-37
2022/02/28 08:38:37;;;;;;;3.87;2.17;;;;;;;3.89;44.70;100971.77;1742401;80;21153;-38
2022/02/28 08:41:04;;;;;;;4.10;2.42;;;;;;;3.94;42.73;100971.75;1751275;80;21045;-38
2022/02/28 08:43:31;;;;;;;4.40;2.30;;;;;;;3.97;43.36;100978.45;1749515;80;21503;-37
2022/02/28 08:45:58;;;;;;;5.37;2.75;;;;;;;4.00;42.86;100980.58;1748204;80;21041;-38
2022/02/28 08:48:24;;;;;;;4.05;2.35;;;;;;;4.00;42.99;100973.87;1771456;80;21591;-38
2022/02/28 08:50:51;;;;;;;5.03;2.47;;;;;;;4.03;43.19;100975.45;1734961;81;21383;-38
2022/02/28 08:53:18;;;;;;;5.03;2.65;;;;;;;4.05;42.35;100977.33;1758553;80;21912;-38
2022/02/28 08:55:45;;;;;;;4.20;2.10;;;;;;;4.08;42.18;100979.98;1759883;80;21530;-38
2022/02/28 08:58:11;;;;;;;5.47;2.33;;;;;;;4.15;42.09;100978.63;1738731;80;21081;-38
2022/02/28 09:00:39;;;;;;;3.50;2.30;;;;;;;4.25;42.28;100976.42;1746454;80;21022;-38
2022/02/28 09:03:06;;;;;;;5.42;2.45;;;;;;;4.41;41.96;100971.19;1769235;78;21125;-38
2022/02/28 09:05:34;;;;;;;3.67;2.15;;;;;;;4.61;41.51;100972.39;1788577;78;21010;-38
2022/02/28 09:08:01;;;;;;;4.92;2.37;;;;;;;4.80;41.12;100969.28;1776406;79;21041;-38
2022/02/28 09:10:28;;;;;;;3.80;2.20;;;;;;;4.99;40.71;100973.42;1753875;79;21061;-38
2022/02/28 09:12:55;;;;;;;6.85;2.95;;;;;;;5.12;40.79;100971.97;1785388;79;21067;-38
2022/02/28 09:15:22;;;;;;;3.47;2.25;;;;;;;5.28;40.20;100969.94;1748527;80;21100;-38
2022/02/28 09:17:50;;;;;;;3.08;2.15;;;;;;;5.43;40.08;100967.06;1740843;80;21005;-38
2022/02/28 09:20:18;;;;;;;7.87;2.90;;;;;;;5.60;39.46;100959.35;1741389;81;20934;-39
2022/02/28 09:22:45;;;;;;;4.90;2.33;;;;;;;5.74;38.61;100968.87;1768215;80;20977;-40
2022/02/28 09:25:12;;;;;;;3.37;2.58;;;;;;;5.78;38.75;100965.86;1734687;80;21002;-41
2022/02/28 09:27:40;;;;;;;3.95;1.98;;;;;;;5.79;38.63;100963.43;1743217;80;21161;-40
2022/02/28 09:30:11;;;;;;;3.15;2.10;;;;;;;5.83;38.36;100963.91;1751049;80;20972;-40
2022/02/28 09:32:38;;;;;;;9.55;6.03;;;;;;;5.95;38.30;100968.91;1711249;80;21052;-40
2022/02/28 09:35:07;;;;;;;7.42;2.08;;;;;;;6.08;38.35;100961.46;1747771;80;21417;-40
2022/02/28 09:37:34;;;;;;;4.47;2.10;;;;;;;6.20;37.66;100961.81;1740810;80;21044;-41
2022/02/28 09:40:01;;;;;;;8.08;1.85;;;;;;;6.25;38.26;100964.44;1741391;80;21156;-41
2022/02/28 09:42:39;;;;;;;3.10;1.95;;;;;;;6.37;37.67;100959.42;1741941;80;21104;-41
2022/02/28 09:45:23;;;;;;;3.70;2.33;;;;;;;6.53;37.90;100960.77;1709633;83;21920;-41
2022/02/28 09:47:55;;;;;;;2.90;2.10;;;;;;;6.63;36.63;100955.00;1740082;80;20982;-41
2022/02/28 09:50:41;;;;;;;3.50;2.25;;;;;;;6.54;36.72;100946.22;1755169;80;21065;-40
2022/02/28 09:53:25;;;;;;;4.00;2.35;;;;;;;6.47;37.35;100949.84;1774624;79;21097;-41
2022/02/28 09:55:56;;;;;;;3.98;2.50;;;;;;;6.55;37.06;100946.48;1760724;80;20976;-41
2022/02/28 09:58:32;;;;;;;13.10;6.50;;;;;;;6.71;37.60;100947.58;1768123;79;21006;-41
2022/02/28 10:01:00;;;;;;;6.37;3.92;;;;;;;6.96;37.34;100945.81;1776324;79;20961;-41
2022/02/28 10:03:28;;;;;;;6.67;4.03;;;;;;;7.20;36.29;100939.70;1790953;78;21056;-41
2022/02/28 10:06:01;;;;;;;7.47;3.47;;;;;;;7.35;35.99;100942.13;1764351;80;21162;-41
2022/02/28 10:08:46;;;;;;;4.62;2.80;;;;;;;7.50;36.38;100938.87;1740219;80;20997;-40
2022/02/28 10:11:35;;;;;;;4.15;2.58;;;;;;;7.67;35.33;100938.50;1769951;78;21648;-40
2022/02/28 10:14:06;;;;;;;3.05;2.22;;;;;;;7.74;34.85;100929.46;1759770;79;21004;-40
2022/02/28 10:16:50;;;;;;;3.20;2.20;;;;;;;7.82;35.11;100923.89;1766515;79;20977;-40
2022/02/28 10:19:23;;;;;;;3.65;2.37;;;;;;;7.94;35.01;100926.08;1761215;80;21272;-40
2022/02/28 10:21:54;;;;;;;3.33;2.70;;;;;;;8.04;34.51;100913.12;1769623;80;20972;-40
2022/02/28 10:24:28;;;;;;;8.78;5.28;;;;;;;8.07;34.57;100919.84;1764282;79;21181;-40
2022/02/28 10:26:59;;;;;;;9.33;5.85;;;;;;;8.00;34.41;100931.05;1741275;80;21570;-41
2022/02/28 10:29:46;;;;;;;17.32;8.40;;;;;;;7.97;34.44;100926.27;1746277;79;21119;-41
2022/02/28 10:32:49;;;;;;;12.85;7.62;;;;;;;7.94;35.03;100924.15;1746986;80;21978;-41
2022/02/28 10:38:21;;;;;;;7.97;4.75;;;;;;;8.30;33.87;100917.44;1694044;81;22428;-41
2022/02/28 10:40:48;;;;;;;9.68;4.92;;;;;;;8.09;33.92;100875.20;1734442;80;21143;-41
2022/02/28 10:43:26;;;;;;;6.42;4.00;;;;;;;8.49;33.65;100915.35;1745171;80;22533;-42
2022/02/28 10:45:55;;;;;;;5.28;3.80;;;;;;;8.53;33.63;100912.83;1740003;80;21959;-42
2022/02/28 10:48:22;;;;;;;9.75;3.60;;;;;;;8.56;33.48;100908.17;1747331;80;22311;-41
2022/02/28 10:50:53;;;;;;;4.10;2.83;;;;;;;8.71;33.58;100898.34;1740293;80;21017;-41
2022/02/28 10:53:22;;;;;;;4.65;2.50;;;;;;;8.91;33.15;100899.14;1745958;80;21020;-41
2022/02/28 10:55:51;;;;;;;2.80;2.00;;;;;;;9.11;32.42;100893.19;1769556;79;21473;-41
2022/02/28 10:58:24;;;;;;;3.42;2.20;;;;;;;9.20;32.36;100891.09;1787898;79;21161;-41
2022/02/28 11:01:03;;;;;;;2.47;1.72;;;;;;;9.25;31.72;100892.28;1779032;79;21081;-41
2022/02/28 11:03:50;;;;;;;2.95;1.45;;;;;;;9.24;31.30;100882.59;1771980;79;20973;-41
2022/02/28 11:06:22;;;;;;;5.33;2.60;;;;;;;9.25;31.36;100889.58;1742000;80;21436;-41
2022/02/28 11:08:50;;;;;;;2.85;1.85;;;;;;;9.38;31.25;100885.98;1739302;80;21083;-41
2022/02/28 11:11:16;;;;;;;2.87;1.57;;;;;;;9.49;30.80;100894.83;1760163;80;21759;-41
2022/02/28 11:13:46;;;;;;;3.30;1.70;;;;;;;9.59;30.65;100888.33;1788372;79;20991;-41
2022/02/28 11:16:13;;;;;;;2.40;1.55;;;;;;;9.69;30.65;100883.17;1768161;79;20997;-41
2022/02/28 11:18:41;;;;;;;2.50;1.62;;;;;;;9.81;30.60;100876.59;1775582;79;21779;-41
2022/02/28 11:21:08;;;;;;;2.70;1.85;;;;;;;10.03;30.20;100870.45;1763278;79;20986;-42
2022/02/28 11:23:39;;;;;;;3.58;2.60;;;;;;;10.29;29.62;100869.69;1758747;79;21091;-41
2022/02/28 11:26:06;;;;;;;3.98;2.67;;;;;;;10.42;29.64;100874.13;1745517;80;21017;-41
2022/02/28 11:28:33;;;;;;;29.60;16.95;;;;;;;10.54;29.04;100871.58;1749643;80;20909;-42
2022/02/28 11:31:07;;;;;;;54.75;31.00;;;;;;;10.56;29.16;100872.03;1767130;78;20935;-41
2022/02/28 11:33:34;;;;;;;12.33;7.53;;;;;;;10.61;28.73;100870.50;1795037;78;21090;-42
2022/02/28 11:36:00;;;;;;;16.37;7.72;;;;;;;10.74;28.61;100864.67;1784584;79;21164;-42
2022/02/28 11:38:33;;;;;;;4.70;2.92;;;;;;;10.84;28.45;100865.09;1801888;78;21319;-41
2022/02/28 11:41:02;;;;;;;2.83;1.77;;;;;;;10.89;27.18;100874.41;1745618;79;21084;-42
2022/02/28 11:43:32;;;;;;;2.73;1.83;;;;;;;10.90;27.13;100872.50;1788093;79;21076;-41
2022/02/28 11:46:08;;;;;;;;;;;;;;;10.87;26.84;100859.59;1736869;80;21638;-42
2022/02/28 11:48:51;;;;;;;3.52;2.40;;;;;;;10.93;27.07;100867.00;1722231;81;21171;-42
2022/02/28 11:51:31;;;;;;;3.98;2.72;;;;;;;10.95;27.45;100870.16;1742387;80;21088;-42
2022/02/28 11:54:05;;;;;;;;;;;;;;;11.14;27.24;100858.35;1738208;81;21013;-42
2022/02/28 11:56:37;;;;;;;7.67;5.00;;;;;;;11.62;27.40;100859.28;1754448;80;20535;-42
2022/02/28 11:59:26;;;;;;;14.58;8.90;;;;;;;11.87;26.74;100812.70;1734838;80;21069;-42
2022/02/28 12:02:05;;;;;;;14.70;8.90;;;;;;;12.68;26.54;100850.17;1757739;80;21819;-42
2022/02/28 12:04:42;;;;;;;11.33;6.97;;;;;;;13.21;25.86;100846.52;1735511;80;21069;-42
2022/02/28 12:07:25;;;;;;;7.60;5.60;;;;;;;13.63;25.42;100852.48;1749419;80;21045;-42
2022/02/28 12:10:13;;;;;;;8.23;5.83;;;;;;;13.98;24.63;100852.19;1746340;80;21490;-42
2022/02/28 12:12:58;;;;;;;7.28;5.00;;;;;;;14.09;24.29;100857.35;1737286;81;21049;-42
2022/02/28 12:15:25;;;;;;;9.18;6.20;;;;;;;14.13;24.09;100851.45;1739174;80;21060;-41
2022/02/28 12:18:00;;;;;;;9.68;6.62;;;;;;;14.03;23.87;100849.78;1742672;78;21071;-41
2022/02/28 12:20:37;;;;;;;10.18;7.22;;;;;;;13.85;23.70;100860.95;1750695;79;20992;-41
2022/02/28 12:23:10;;;;;;;12.47;7.83;;;;;;;13.66;24.05;100862.69;1758575;80;20978;-41
2022/02/28 12:25:47;;;;;;;10.35;6.83;;;;;;;13.43;24.38;100861.02;1775693;78;21032;-41
2022/02/28 12:28:44;;;;;;;8.33;5.40;;;;;;;13.39;24.38;100854.11;1768529;78;21848;-41
2022/02/28 12:31:14;;;;;;;9.15;6.58;;;;;;;13.31;24.12;100856.36;1762958;79;20983;-41
2022/02/28 12:33:47;;;;;;;9.20;6.40;;;;;;;13.17;24.45;100860.00;1764769;78;21031;-41
2022/02/28 16:02:38;;;;;;;10.80;6.65;;;;;;;5.83;33.39;100872.95;1780001;79;20982;-37
2022/02/28 16:05:06;;;;;;;8.98;5.97;;;;;;;5.61;33.62;100875.67;1759316;80;21033;-37
2022/02/28 16:07:33;;;;;;;10.10;5.60;;;;;;;5.49;33.93;100869.91;1726626;81;21146;-37
2022/02/28 16:10:00;;;;;;;7.87;4.90;;;;;;;5.33;34.41;100874.39;1739820;81;21009;-37
2022/02/28 16:12:27;;;;;;;9.10;4.35;;;;;;;5.12;34.86;100881.92;1724072;81;21077;-37
2022/02/28 16:14:54;;;;;;;5.03;3.40;;;;;;;4.90;35.00;100880.26;1722358;81;21037;-37
2022/02/28 16:17:22;;;;;;;4.72;3.25;;;;;;;4.69;35.52;100875.11;1741746;81;21060;-37
2022/02/28 16:19:49;;;;;;;4.87;3.70;;;;;;;4.53;35.83;100879.55;1749575;80;21854;-37
2022/02/28 16:22:16;;;;;;;8.13;4.17;;;;;;;4.35;36.16;100881.05;1768356;80;20985;-37
2022/02/28 16:24:42;;;;;;;5.47;3.85;;;;;;;4.22;36.46;100879.78;1793236;79;21549;-37
2022/02/28 16:27:09;;;;;;;5.67;3.83;;;;;;;4.09;36.69;100884.98;1776804;78;21070;-37
2022/02/28 16:29:35;;;;;;;5.80;3.83;;;;;;;4.00;36.84;100879.95;1780348;78;21566;-37
2022/02/28 16:32:03;;;;;;;5.87;4.05;;;;;;;3.88;37.15;100882.96;1767311;80;21118;-36
2022/02/28 16:34:31;;;;;;;5.90;4.28;;;;;;;3.78;37.46;100881.14;1764464;79;21513;-35
2022/02/28 16:36:57;;;;;;;6.55;4.40;;;;;;;3.69;37.78;100881.47;1756966;79;21471;-36
2022/02/28 16:39:24;;;;;;;6.55;4.28;;;;;;;3.62;38.20;100879.64;1752463;80;21046;-36
2022/02/28 16:41:50;;;;;;;7.28;4.10;;;;;;;3.54;38.57;100872.16;1738037;80;21101;-36
2022/02/28 16:44:17;;;;;;;6.37;4.30;;;;;;;3.46;38.62;100869.52;1754490;80;21129;-36
2022/02/28 16:46:44;;;;;;;6.53;4.37;;;;;;;3.42;38.82;100873.03;1743042;80;20997;-36
2022/02/28 16:49:10;;;;;;;7.62;4.67;;;;;;;3.39;38.98;100877.05;1729299;80;21076;-36
2022/02/28 16:51:37;;;;;;;10.03;4.12;;;;;;;3.38;39.12;100875.47;1754292;80;21026;-36
2022/02/28 16:54:04;;;;;;;6.00;4.00;;;;;;;3.35;39.42;100880.02;1755780;80;21058;-36
2022/02/28 16:56:31;;;;;;;9.28;4.45;;;;;;;3.27;39.64;100881.93;1729872;80;22014;-36
2022/02/28 16:58:59;;;;;;;9.23;5.60;;;;;;;3.21;39.90;100874.17;1736086;80;20980;-36
2022/02/28 17:01:26;;;;;;;9.48;4.70;;;;;;;3.18;40.12;100874.20;1731834;81;21107;-36
2022/02/28 17:03:52;;;;;;;8.88;4.45;;;;;;;3.14;40.30;100881.18;1744117;80;21052;-36
2022/02/28 17:06:19;;;;;;;9.48;4.62;;;;;;;3.10;40.49;100883.34;1754937;79;21087;-35
2022/02/28 17:08:45;;;;;;;9.43;4.67;;;;;;;3.04;40.66;100877.99;1775919;79;21153;-36
2022/02/28 17:11:13;;;;;;;11.20;5.30;;;;;;;3.02;40.82;100880.13;1776402;79;20937;-36
2022/02/28 17:13:40;;;;;;;9.00;4.70;;;;;;;3.02;40.93;100888.17;1765803;79;20989;-36
2022/02/28 17:16:06;;;;;;;12.50;5.30;;;;;;;2.99;41.12;100886.05;1751288;80;21104;-36
2022/02/28 17:18:34;;;;;;;13.75;5.12;;;;;;;2.93;41.51;100889.80;1765269;79;21483;-36
2022/02/28 17:21:01;;;;;;;13.15;5.20;;;;;;;2.88;41.51;100888.47;1806929;78;21163;-36
2022/02/28 17:23:28;;;;;;;12.03;5.28;;;;;;;2.85;41.70;100881.52;1786983;78;21032;-36
2022/02/28 17:25:54;;;;;;;13.70;6.50;;;;;;;2.83;41.95;100887.14;1766284;79;21029;-36
2022/02/28 17:28:23;;;;;;;16.55;6.03;;;;;;;2.78;42.03;100887.68;1790395;78;21495;-36
2022/02/28 17:30:49;;;;;;;11.03;5.80;;;;;;;2.77;42.19;100888.21;1799678;78;21547;-35
2022/02/28 17:33:16;;;;;;;12.05;6.75;;;;;;;2.76;42.16;100892.52;1781644;78;21118;-35
2022/02/28 17:35:44;;;;;;;13.05;6.47;;;;;;;2.73;42.52;100885.81;1761396;81;21877;-35
2022/02/28 17:38:11;;;;;;;15.40;7.33;;;;;;;2.74;42.35;100886.62;1753523;80;21514;-35
2022/02/28 17:40:37;;;;;;;13.55;6.87;;;;;;;2.75;42.38;100889.03;1727487;81;21045;-36
2022/02/28 17:43:11;;;;;;;10.30;6.85;;;;;;;2.78;42.45;100883.66;1763942;78;20978;-36
2022/02/28 17:45:33;;;;;;;11.48;6.85;;;;;;;2.77;42.66;100881.52;1770470;80;23305;-36
2022/02/28 17:48:00;;;;;;;12.78;7.97;;;;;;;2.75;42.72;100882.34;1766516;80;21060;-36
2022/02/28 17:50:27;;;;;;;13.53;6.67;;;;;;;2.73;42.99;100887.16;1756399;80;21052;-36
2022/02/28 17:52:54;;;;;;;10.88;7.05;;;;;;;2.66;43.26;100886.64;1758216;80;21028;-36
2022/02/28 17:55:21;;;;;;;9.23;6.12;;;;;;;2.57;43.43;100886.89;1761220;80;21549;-36
2022/02/28 17:57:47;;;;;;;11.93;5.95;;;;;;;2.51;43.91;100879.95;1747214;80;21193;-36
2022/02/28 18:00:16;;;;;;;9.68;5.87;;;;;;;2.48;43.98;100876.46;1741025;80;21032;-36
2022/02/28 18:02:42;;;;;;;8.18;6.10;;;;;;;2.48;44.28;100874.59;1741221;80;21879;-35
2022/02/28 18:05:10;;;;;;;7.53;5.10;;;;;;;2.48;44.33;100873.78;1772056;79;21079;-36
2022/02/28 18:07:37;;;;;;;7.50;5.00;;;;;;;2.49;44.49;100880.22;1744348;79;20952;-36
2022/02/28 18:10:05;;;;;;;9.45;5.58;;;;;;;2.47;44.57;100879.67;1765639;80;21432;-35
2022/02/28 18:12:32;;;;;;;8.13;5.03;;;;;;;2.46;44.72;100874.61;1758418;79;21588;-36
2022/02/28 18:14:59;;;;;;;7.78;5.30;;;;;;;2.45;44.80;100877.81;1748661;80;21032;-36
2022/02/28 18:17:27;;;;;;;7.90;5.28;;;;;;;2.45;44.88;100868.98;1774930;79;21031;-35
2022/02/28 18:19:54;;;;;;;8.48;5.12;;;;;;;2.44;44.98;100865.49;1754788;80;21052;-35
2022/02/28 18:22:21;;;;;;;7.67;5.20;;;;;;;2.40;45.03;100870.31;1756498;80;21217;-35
2022/02/28 18:24:48;;;;;;;7.67;4.75;;;;;;;2.39;45.24;100870.05;1766350;79;20929;-37
2022/02/28 18:27:16;;;;;;;7.37;4.67;;;;;;;2.43;45.12;100871.11;1743471;80;22510;-35
2022/02/28 18:29:43;;;;;;;8.03;5.03;;;;;;;2.41;45.18;100870.59;1760025;80;20993;-35
2022/02/28 18:32:37;;;;;;;10.25;5.40;;;;;;;2.37;45.16;100876.22;1750918;80;21460;-35
2022/02/28 18:35:07;;;;;;;7.25;5.20;;;;;;;2.35;45.34;100871.13;1756262;81;21014;-36
2022/02/28 18:37:34;;;;;;;;;;;;;;;2.27;45.33;100862.83;1765983;79;21124;-35
